• Join FlightAware (Why Join?)
  • Login
  • US Flag 
08:00PM EDT


 

Airport Tracker/Info


-or-


 

Live Flight TrackerFlight Track Log ✈ SKW2696 ✈ 15-Apr-2013 ✈ KLAX - KRNO

Flight Track Log - Related Links

Times and Time Zones

All times are in EDT time to prevent confusion due to time zone crossing. See the SKW2696 flight status page for this flight to view local times or setup timezone preferences in your user account.

Time Position Orientation Groundspeed Altitude Reporting Facility
EDT Latitude Longitude Course Direction KTS MPH feet Rate Location/Type
06:27PM 33.9500 -118.4833 North 188 216 2,000  Level Southern California TRACON
06:28PM 33.9333 -118.5667 256° West 268 308 4,100 2,880 Climbing Southern California TRACON
06:29PM 33.9333 -118.6500 270° West 260 299 7,500 3,300 Climbing Southern California TRACON
06:30PM 33.9539 -118.6622 334° Northwest 247 284 8,300 1,140 Climbing Los Angeles Center
06:31PM 34.0183 -118.7100 328° Northwest 251 289 9,100 300 Climbing Los Angeles Center
06:32PM 34.0878 -118.6839 17° North 288 331 9,000 660 Descending Los Angeles Center
06:33PM 34.2976 -118.6000 North  Level FlightAware Approximate
06:33PM 34.1608 -118.6697 North 272 313 10,500  Level Los Angeles Center
06:34PM 34.2394 -118.6822 353° North 283 326 12,000 1,680 Climbing Los Angeles Center
06:35PM 34.3275 -118.6944 353° North 312 359 14,000 1,620 Climbing Los Angeles Center
06:36PM 34.4186 -118.7069 354° North 329 379 15,400 1,620 Climbing Los Angeles Center
06:37PM 34.5294 -118.7267 352° North 336 387 17,400 1,740 Climbing Los Angeles Center
06:38PM 34.6147 -118.7664 339° North 329 379 19,000 1,500 Climbing Los Angeles Center
06:39PM 34.7008 -118.8114 337° Northwest 336 387 20,600 1,260 Climbing Los Angeles Center
06:40PM 34.7900 -118.8547 338° Northwest 343 395 21,700 960 Climbing Los Angeles Center
06:41PM 34.8836 -118.8886 343° North 350 403 22,700 1,020 Climbing Los Angeles Center
06:42PM 34.9936 -118.9108 351° North 369 425 23,900 1,020 Climbing Los Angeles Center
06:43PM 35.0958 -118.9267 353° North 373 429 24,900 780 Climbing Los Angeles Center
06:44PM 35.1994 -118.9425 353° North 375 432 25,600 660 Climbing Los Angeles Center
06:45PM 35.3269 -118.9628 353° North 384 442 26,400 660 Climbing Los Angeles Center
06:46PM 35.4581 -118.9822 353° North 392 451 27,100 660 Climbing Los Angeles Center
06:47PM 35.5653 -118.9997 352° North 393 452 27,800 600 Climbing Los Angeles Center
06:48PM 35.6719 -119.0169 353° North 394 453 28,400 720 Climbing Oakland Center
06:50PM 35.7822 -119.0331 353° North 399 459 29,300 720 Climbing Oakland Center
06:51PM 35.9119 -119.0553 352° North 395 455 29,900 540 Climbing Oakland Center
06:52PM 36.0200 -119.0717 353° North 395 455 30,500 720 Climbing Oakland Center
06:53PM 36.1258 -119.0886 353° North 389 448 31,400 660 Climbing Oakland Center
06:54PM 36.2317 -119.1069 352° North 385 443 31,900 240 Climbing Oakland Center
06:55PM 36.3378 -119.1219 354° North 387 445 32,000  Climbing Oakland Center
06:56PM 36.4497 -119.1397 353° North 407 468 32,000  Level Oakland Center
06:57PM 36.5617 -119.1575 353° North 407 468 32,000  Level Oakland Center
06:58PM 36.6756 -119.1758 353° North 413 475 32,000  Level Oakland Center
06:59PM 36.7903 -119.1939 353° North 415 478 32,000 -300 Level Oakland Center
07:00PM 36.9275 -119.2161 353° North 417 480 31,400 -840 Descending Oakland Center
07:01PM 37.0428 -119.2358 352° North 418 481 30,400 -720 Descending Oakland Center
07:02PM 37.1594 -119.2558 352° North 424 488 30,000 -240 Descending Oakland Center
07:03PM 37.2739 -119.2753 352° North 417 480 30,000  Level Oakland Center
07:04PM 37.3911 -119.2939 353° North 423 487 30,000  Level Oakland Center
07:05PM 37.5097 -119.3117 353° North 430 495 30,000 -120 Level Oakland Center
07:06PM 37.6256 -119.3300 353° North 428 493 29,800 -600 Descending Oakland Center
07:07PM 37.7378 -119.3497 352° North 412 474 28,800 -1,140 Descending Oakland Center
07:08PM 37.8478 -119.3692 352° North 404 465 27,600 -1,800 Descending Oakland Center
07:09PM 37.9797 -119.3903 353° North 400 460 25,200 -1,800 Descending Oakland Center
07:10PM 38.0889 -119.4097 352° North 399 459 24,000 -600 Descending Oakland Center
07:11PM 38.1794 -119.4233 353° North 380 437 24,000 -540 Level Oakland Center
07:12PM 38.2819 -119.4417 352° North 371 427 23,000 -1,620 Descending Oakland Center
07:13PM 38.3825 -119.4811 343° North 345 397 20,800 -1,920 Descending Oakland Center
07:14PM 38.4683 -119.5369 333° Northwest 316 364 19,200 -1,620 Descending Oakland Center
07:15PM 38.5503 -119.5917 332° Northwest 327 376 17,500 -1,380 Descending Oakland Center
07:16PM 38.6333 -119.6478 332° Northwest 337 388 16,400 -780 Descending Oakland Center
07:17PM 38.7117 -119.7000 333° Northwest 322 371 16,000 -240 Descending Oakland Center
07:18PM 38.7833 -119.7489 332° Northwest 300 345 16,000 -420 Level Oakland Center
07:19PM 38.8669 -119.7689 349° North 313 360 15,200 -1,200 Descending Oakland Center
07:20PM 38.9517 -119.7700 359° North 306 352 13,600 -1,680 Descending Oakland Center
07:21PM 39.0325 -119.7692 360° North 298 343 11,800 -1,320 Descending Oakland Center
07:22PM 39.1172 -119.7692 360° North 298 343 11,000 -600 Descending Oakland Center
07:23PM 39.2022 -119.7664 North 301 346 10,600 -660 Descending Oakland Center
07:24PM 39.2878 -119.7658 360° North 304 350 9,700 -1,200 Descending Oakland Center
07:25PM 39.3678 -119.7664 360° North 299 344 8,200 -1,440 Descending Oakland Center
07:26PM 39.4000 -119.7667 360° North 219 252 7,700 -1,680 Descending Northern Cal TRACON
07:27PM 39.4500 -119.7667 360° North 159 183 5,900 -1,800 Descending Northern Cal TRACON
07:29PM 39.4833 -119.7667 North  Level FlightAware Approximate
07:36PM 39.4991 -119.7681 North  Level Estimated
07:37PM 39.4991 -119.7681 North  Level Estimated